Time;durP1;ratioP1;P1;durP2;ratioP2;P2;SDS_P1;SDS_P2;PMS_P1;PMS_P2;Temp;Humidity;BMP_temperature;BMP_pressure;BME280_temperature;BME280_humidity;BME280_pressure;Samples;Min_cycle;Max_cycle;Signal;HPM_P1;HPM_P2
2023/03/25 00:01:33;;;;;;;5.05;4.10;;;;;;;;;;4966696;28;20758;-63
2023/03/25 00:04:00;;;;;;;4.20;3.90;;;;;;;;;;4970237;28;20027;-63
2023/03/25 00:06:27;;;;;;;5.15;4.05;;;;;;;;;;4972098;28;20403;-63
2023/03/25 00:08:53;;;;;;;4.43;4.10;;;;;;;;;;4968047;28;20031;-64
2023/03/25 00:11:19;;;;;;;4.88;4.57;;;;;;;;;;4968758;28;20030;-64
2023/03/25 00:13:46;;;;;;;5.07;4.68;;;;;;;;;;4972163;28;20045;-65
2023/03/25 00:16:13;;;;;;;5.57;5.18;;;;;;;;;;4971924;28;20038;-64
2023/03/25 00:18:39;;;;;;;6.03;5.65;;;;;;;;;;4967125;28;20657;-65
2023/03/25 00:21:09;;;;;;;5.97;5.40;;;;;;;;;;4971305;28;20039;-65
2023/03/25 00:23:35;;;;;;;6.40;5.97;;;;;;;;;;4968906;28;20038;-65
2023/03/25 00:26:01;;;;;;;5.72;5.43;;;;;;;;;;4967943;28;20066;-65
2023/03/25 00:28:29;;;;;;;5.95;5.60;;;;;;;;;;4967914;28;20049;-65
2023/03/25 00:30:59;;;;;;;5.90;5.50;;;;;;;;;;4970840;28;20287;-66
2023/03/25 00:33:24;;;;;;;5.53;5.07;;;;;;;;;;4971212;28;20046;-66
2023/03/25 00:35:53;;;;;;;5.78;5.47;;;;;;;;;;4968633;28;20046;-66
2023/03/25 00:38:19;;;;;;;5.70;4.78;;;;;;;;;;4969887;28;20038;-65
2023/03/25 00:40:48;;;;;;;5.18;4.78;;;;;;;;;;4968852;28;20524;-65
2023/03/25 00:43:13;;;;;;;5.22;4.82;;;;;;;;;;4971996;28;20042;-65
2023/03/25 00:45:39;;;;;;;5.15;4.85;;;;;;;;;;4964224;28;20038;-65
2023/03/25 00:48:05;;;;;;;4.80;4.60;;;;;;;;;;4973516;28;20030;-65
2023/03/25 00:50:30;;;;;;;4.85;4.63;;;;;;;;;;4971051;28;20706;-66
2023/03/25 00:52:56;;;;;;;5.07;4.68;;;;;;;;;;4964994;28;20034;-65
2023/03/25 00:55:22;;;;;;;5.45;4.93;;;;;;;;;;4972584;28;20061;-65
2023/03/25 00:57:47;;;;;;;5.00;4.70;;;;;;;;;;4968064;28;20376;-64
2023/03/25 01:00:16;;;;;;;5.10;4.70;;;;;;;;;;4970313;28;20158;-64
2023/03/25 01:02:42;;;;;;;5.22;4.93;;;;;;;;;;4966626;28;20070;-65
2023/03/25 01:05:10;;;;;;;5.38;4.97;;;;;;;;;;4972461;28;20093;-64
2023/03/25 01:07:40;;;;;;;5.10;4.80;;;;;;;;;;4971159;28;20041;-65
2023/03/25 01:10:07;;;;;;;5.40;5.10;;;;;;;;;;4967287;28;20034;-64
2023/03/25 01:12:33;;;;;;;5.10;4.80;;;;;;;;;;4970466;28;20086;-64
2023/03/25 01:14:59;;;;;;;5.13;4.70;;;;;;;;;;4970638;28;20061;-64
2023/03/25 01:17:25;;;;;;;5.32;4.82;;;;;;;;;;4971188;28;20092;-64
2023/03/25 01:19:50;;;;;;;5.07;4.70;;;;;;;;;;4966365;28;20122;-64
2023/03/25 01:22:16;;;;;;;5.30;5.00;;;;;;;;;;4971304;28;20093;-64
2023/03/25 01:24:42;;;;;;;5.10;4.75;;;;;;;;;;4972197;28;20502;-64
2023/03/25 01:27:07;;;;;;;5.45;4.93;;;;;;;;;;4970877;28;20588;-64
2023/03/25 01:29:33;;;;;;;5.47;5.07;;;;;;;;;;4966426;28;20133;-65
2023/03/25 01:31:58;;;;;;;5.10;4.65;;;;;;;;;;4969522;28;20478;-64
2023/03/25 01:34:24;;;;;;;4.97;4.68;;;;;;;;;;4970667;28;20061;-64
2023/03/25 01:36:54;;;;;;;6.50;4.85;;;;;;;;;;4965850;28;20146;-64
2023/03/25 01:39:20;;;;;;;5.28;4.88;;;;;;;;;;4968542;28;20038;-64
2023/03/25 01:41:49;;;;;;;6.13;4.93;;;;;;;;;;4971104;28;20106;-65
2023/03/25 01:44:20;;;;;;;6.40;4.87;;;;;;;;;;4970311;28;20062;-64
2023/03/25 01:46:48;;;;;;;5.35;4.90;;;;;;;;;;4983011;28;20066;-64
2023/03/25 01:49:28;;;;;;;7.13;4.90;;;;;;;;;;4970584;28;20038;-64
2023/03/25 01:52:00;;;;;;;5.10;4.70;;;;;;;;;;4970509;28;20042;-64
2023/03/25 01:54:26;;;;;;;8.35;4.50;;;;;;;;;;4966203;28;20035;-64
2023/03/25 01:56:52;;;;;;;4.90;4.50;;;;;;;;;;4968937;28;20086;-64
2023/03/25 01:59:23;;;;;;;4.95;4.60;;;;;;;;;;4971327;28;20074;-63
2023/03/25 02:01:50;;;;;;;4.80;4.40;;;;;;;;;;4967403;28;20124;-64
2023/03/25 02:04:26;;;;;;;4.90;4.60;;;;;;;;;;4967701;28;20046;-64
2023/03/25 02:06:53;;;;;;;4.88;4.60;;;;;;;;;;4970330;28;20038;-64
2023/03/25 02:09:21;;;;;;;5.28;4.80;;;;;;;;;;4986370;28;20043;-63
2023/03/25 02:11:47;;;;;;;5.50;4.90;;;;;;;;;;4970520;28;20503;-65
2023/03/25 02:14:18;;;;;;;4.93;4.53;;;;;;;;;;4970168;28;20035;-65
2023/03/25 02:16:49;;;;;;;5.10;4.70;;;;;;;;;;4973572;28;20046;-63
2023/03/25 02:19:34;;;;;;;4.95;4.65;;;;;;;;;;4971442;28;20105;-64
2023/03/25 02:22:16;;;;;;;6.20;4.57;;;;;;;;;;4969426;28;20085;-64
2023/03/25 02:25:12;;;;;;;5.22;4.72;;;;;;;;;;4971025;28;20039;-64
2023/03/25 02:28:11;;;;;;;4.80;4.47;;;;;;;;;;4975237;28;20078;-64
2023/03/25 02:31:08;;;;;;;4.47;4.28;;;;;;;;;;4968983;28;20034;-64
2023/03/25 02:33:59;;;;;;;5.30;4.80;;;;;;;;;;4972926;28;20049;-64
2023/03/25 02:37:19;;;;;;;4.65;4.45;;;;;;;;;;4969768;28;20039;-64
2023/03/25 02:39:54;;;;;;;5.20;4.90;;;;;;;;;;4942249;28;20082;-63
2023/03/25 02:42:41;;;;;;;5.40;5.00;;;;;;;;;;4947072;28;20087;-64
2023/03/25 02:45:22;;;;;;;5.35;5.00;;;;;;;;;;4937775;29;20047;-64
2023/03/25 02:47:53;;;;;;;5.40;4.90;;;;;;;;;;4945375;28;20534;-63
2023/03/25 02:50:26;;;;;;;4.90;4.60;;;;;;;;;;4960635;28;21416;-63
2023/03/25 02:52:56;;;;;;;5.13;4.65;;;;;;;;;;4958537;28;20038;-64
2023/03/25 02:55:24;;;;;;;4.68;4.38;;;;;;;;;;4957222;28;20816;-63
2023/03/25 02:57:53;;;;;;;6.60;4.40;;;;;;;;;;4943127;28;20059;-63
2023/03/25 03:00:27;;;;;;;7.47;4.40;;;;;;;;;;4961393;28;20047;-63
2023/03/25 03:02:58;;;;;;;6.43;4.50;;;;;;;;;;4949986;28;20048;-64
2023/03/25 03:05:28;;;;;;;4.80;4.40;;;;;;;;;;4957173;28;20082;-64
2023/03/25 03:08:03;;;;;;;6.57;4.13;;;;;;;;;;4942140;28;20094;-64
2023/03/25 03:10:40;;;;;;;4.53;4.18;;;;;;;;;;4962612;28;20046;-63
2023/03/25 03:13:22;;;;;;;4.07;3.88;;;;;;;;;;4969053;28;20093;-63
2023/03/25 03:16:18;;;;;;;4.20;4.00;;;;;;;;;;4972821;28;20089;-63
2023/03/25 03:19:01;;;;;;;5.25;4.40;;;;;;;;;;4972313;28;20058;-63
2023/03/25 03:21:53;;;;;;;4.70;4.40;;;;;;;;;;4972916;28;20561;-62
2023/03/25 03:24:25;;;;;;;4.60;4.30;;;;;;;;;;4969433;28;20042;-64
2023/03/25 03:27:13;;;;;;;4.43;4.22;;;;;;;;;;4968976;28;20034;-64
2023/03/25 03:29:48;;;;;;;4.63;4.15;;;;;;;;;;4971132;28;20126;-63
2023/03/25 03:32:24;;;;;;;4.47;4.28;;;;;;;;;;4968904;28;20112;-64
2023/03/25 03:34:53;;;;;;;4.57;4.22;;;;;;;;;;4965027;28;20157;-63
2023/03/25 03:37:57;;;;;;;4.38;4.13;;;;;;;;;;4968274;28;20111;-64
2023/03/25 03:40:24;;;;;;;4.20;4.00;;;;;;;;;;4946057;29;20082;-63
2023/03/25 03:43:16;;;;;;;4.40;4.10;;;;;;;;;;4949109;28;20047;-63
2023/03/25 03:45:47;;;;;;;4.20;4.00;;;;;;;;;;4945464;28;20035;-63
2023/03/25 03:48:39;;;;;;;4.75;4.45;;;;;;;;;;4947462;28;20047;-64
2023/03/25 03:51:10;;;;;;;4.25;3.88;;;;;;;;;;4946819;28;20043;-64
2023/03/25 03:53:43;;;;;;;4.25;3.95;;;;;;;;;;4941739;28;20198;-63
2023/03/25 03:56:35;;;;;;;4.30;4.10;;;;;;;;;;4946958;28;20079;-64
2023/03/25 03:59:07;;;;;;;4.40;4.20;;;;;;;;;;4946189;28;20035;-63
2023/03/25 04:01:46;;;;;;;4.47;4.28;;;;;;;;;;4946578;28;20495;-64
2023/03/25 04:04:19;;;;;;;4.50;4.30;;;;;;;;;;4944798;28;20704;-63
2023/03/25 04:06:47;;;;;;;4.70;4.40;;;;;;;;;;4946899;28;20077;-63
2023/03/25 04:09:42;;;;;;;4.60;4.18;;;;;;;;;;4945935;28;20046;-63
2023/03/25 04:12:19;;;;;;;4.60;4.40;;;;;;;;;;4942170;28;20046;-63
2023/03/25 04:14:45;;;;;;;4.50;4.30;;;;;;;;;;4954946;28;20062;-63
2023/03/25 04:17:11;;;;;;;5.32;4.80;;;;;;;;;;4971095;28;20118;-63
2023/03/25 04:19:37;;;;;;;4.57;4.38;;;;;;;;;;4967775;28;20034;-63
2023/03/25 04:22:04;;;;;;;4.65;4.35;;;;;;;;;;4968765;28;20034;-63
2023/03/25 04:24:30;;;;;;;4.50;4.30;;;;;;;;;;4970456;28;20061;-64
2023/03/25 04:27:03;;;;;;;4.45;4.25;;;;;;;;;;4966785;28;20490;-64
2023/03/25 04:29:30;;;;;;;6.38;4.38;;;;;;;;;;4966615;28;20043;-63
2023/03/25 04:31:56;;;;;;;4.40;4.20;;;;;;;;;;4968793;28;20035;-64
2023/03/25 04:34:22;;;;;;;4.57;4.30;;;;;;;;;;4969158;28;20053;-64
2023/03/25 04:36:51;;;;;;;4.55;4.30;;;;;;;;;;4968571;28;20509;-63
2023/03/25 04:39:17;;;;;;;4.55;4.25;;;;;;;;;;4966046;28;20038;-63
2023/03/25 04:41:43;;;;;;;4.90;4.50;;;;;;;;;;4966104;28;20027;-63
2023/03/25 04:44:09;;;;;;;4.80;4.40;;;;;;;;;;4969883;28;20137;-64
2023/03/25 04:46:36;;;;;;;4.72;4.43;;;;;;;;;;4968086;28;20078;-63
2023/03/25 04:49:12;;;;;;;4.80;4.50;;;;;;;;;;4966186;28;20038;-64
2023/03/25 04:51:40;;;;;;;5.00;4.60;;;;;;;;;;4969131;28;20039;-63
2023/03/25 04:54:06;;;;;;;4.40;4.20;;;;;;;;;;4969862;28;20118;-63
2023/03/25 04:56:32;;;;;;;4.78;4.40;;;;;;;;;;4968606;28;20106;-64
2023/03/25 04:58:58;;;;;;;4.20;3.90;;;;;;;;;;4967078;28;20136;-64
2023/03/25 05:01:29;;;;;;;4.05;3.80;;;;;;;;;;4970216;28;20034;-63
2023/03/25 05:04:03;;;;;;;3.90;3.70;;;;;;;;;;4968612;28;20043;-64
2023/03/25 05:06:33;;;;;;;5.40;4.00;;;;;;;;;;4968396;28;20617;-65
2023/03/25 05:09:03;;;;;;;4.35;3.95;;;;;;;;;;4967958;28;20070;-65
2023/03/25 05:11:30;;;;;;;4.05;3.67;;;;;;;;;;4968223;28;20664;-64
2023/03/25 05:13:56;;;;;;;3.90;3.60;;;;;;;;;;4966104;28;20064;-65
2023/03/25 05:16:21;;;;;;;4.05;3.72;;;;;;;;;;4966848;28;20502;-64
2023/03/25 05:18:47;;;;;;;4.05;3.75;;;;;;;;;;4967287;28;20557;-64
2023/03/25 05:21:13;;;;;;;3.75;3.55;;;;;;;;;;4971285;28;20031;-64
2023/03/25 05:23:40;;;;;;;7.13;3.80;;;;;;;;;;4967541;28;20422;-63
2023/03/25 05:26:07;;;;;;;3.80;3.58;;;;;;;;;;4968952;28;20046;-64
2023/03/25 05:28:33;;;;;;;5.45;4.95;;;;;;;;;;4969768;28;20027;-66
2023/03/25 05:30:58;;;;;;;7.22;6.30;;;;;;;;;;4968926;28;20707;-66
2023/03/25 05:33:24;;;;;;;5.85;4.97;;;;;;;;;;4968459;28;20041;-66
2023/03/25 05:35:49;;;;;;;6.85;5.88;;;;;;;;;;4964310;28;20039;-65
2023/03/25 05:38:17;;;;;;;5.95;5.35;;;;;;;;;;4969209;28;20045;-65
2023/03/25 05:40:47;;;;;;;9.00;6.55;;;;;;;;;;4968469;28;20038;-64
2023/03/25 05:43:16;;;;;;;4.55;4.15;;;;;;;;;;4968702;28;20185;-66
2023/03/25 05:45:43;;;;;;;4.20;3.90;;;;;;;;;;4968178;28;20034;-65
2023/03/25 05:48:09;;;;;;;4.50;4.10;;;;;;;;;;4972967;28;20054;-66
2023/03/25 05:50:36;;;;;;;4.00;3.70;;;;;;;;;;4974648;28;20042;-65
2023/03/25 05:53:03;;;;;;;4.18;3.83;;;;;;;;;;4969431;28;20035;-65
2023/03/25 05:55:29;;;;;;;4.00;3.80;;;;;;;;;;4972914;28;20116;-65
2023/03/25 05:57:55;;;;;;;5.05;4.25;;;;;;;;;;4977983;28;20141;-65
2023/03/25 06:00:22;;;;;;;4.35;3.95;;;;;;;;;;4969983;28;20066;-65
2023/03/25 06:02:48;;;;;;;5.57;4.43;;;;;;;;;;4972389;28;20026;-65
2023/03/25 06:05:15;;;;;;;4.30;3.95;;;;;;;;;;4974147;28;20478;-65
2023/03/25 06:07:42;;;;;;;5.75;3.80;;;;;;;;;;4975017;28;20589;-65
2023/03/25 06:10:18;;;;;;;4.72;4.03;;;;;;;;;;4971084;28;20158;-65
2023/03/25 06:12:45;;;;;;;4.30;4.00;;;;;;;;;;4973363;28;20035;-65
2023/03/25 06:15:13;;;;;;;6.13;3.80;;;;;;;;;;4971513;28;20043;-65
2023/03/25 06:17:39;;;;;;;3.80;3.60;;;;;;;;;;4969538;28;20166;-65
2023/03/25 06:20:11;;;;;;;4.32;3.90;;;;;;;;;;4973164;28;20487;-64
2023/03/25 06:22:43;;;;;;;4.38;3.97;;;;;;;;;;4973202;28;20502;-65
2023/03/25 06:25:19;;;;;;;4.45;4.10;;;;;;;;;;4972496;28;20035;-65
2023/03/25 06:27:47;;;;;;;6.63;4.07;;;;;;;;;;4973532;28;20050;-65
2023/03/25 06:30:16;;;;;;;5.28;3.83;;;;;;;;;;4973006;28;20062;-65
2023/03/25 06:32:42;;;;;;;6.05;4.13;;;;;;;;;;4968906;28;20039;-65
2023/03/25 06:35:09;;;;;;;3.95;3.65;;;;;;;;;;4973489;28;20030;-65
2023/03/25 06:37:35;;;;;;;3.75;3.47;;;;;;;;;;4974028;28;20030;-65
2023/03/25 06:40:06;;;;;;;3.72;3.42;;;;;;;;;;4969239;28;20043;-65
2023/03/25 06:42:32;;;;;;;4.30;3.90;;;;;;;;;;4971026;28;20626;-65
2023/03/25 06:45:16;;;;;;;5.47;3.78;;;;;;;;;;4976531;28;20117;-65
2023/03/25 06:47:59;;;;;;;5.10;3.88;;;;;;;;;;4968299;28;20057;-65
2023/03/25 06:50:25;;;;;;;4.65;4.15;;;;;;;;;;4971259;28;20490;-65
2023/03/25 06:52:51;;;;;;;5.60;4.07;;;;;;;;;;4973436;28;20043;-65
2023/03/25 06:55:17;;;;;;;4.05;3.78;;;;;;;;;;4969534;28;20409;-65
2023/03/25 06:57:42;;;;;;;4.32;3.65;;;;;;;;;;4970406;28;20042;-65
2023/03/25 07:00:10;;;;;;;4.05;3.75;;;;;;;;;;4970687;28;20046;-64
2023/03/25 07:02:37;;;;;;;4.10;3.67;;;;;;;;;;4972592;28;20064;-65
2023/03/25 07:05:04;;;;;;;4.13;3.83;;;;;;;;;;4975192;28;20541;-65
2023/03/25 07:07:30;;;;;;;7.03;3.85;;;;;;;;;;4970063;28;20517;-65
2023/03/25 07:09:55;;;;;;;5.43;3.50;;;;;;;;;;4970641;28;20046;-64
2023/03/25 07:12:22;;;;;;;3.72;3.42;;;;;;;;;;4970920;28;20434;-65
2023/03/25 07:14:54;;;;;;;4.25;3.55;;;;;;;;;;4968528;28;20482;-65
2023/03/25 07:17:21;;;;;;;3.55;3.35;;;;;;;;;;4970528;28;20416;-65
2023/03/25 07:19:47;;;;;;;3.92;3.53;;;;;;;;;;4970972;28;20145;-65
2023/03/25 07:22:12;;;;;;;3.55;3.35;;;;;;;;;;4969802;28;20126;-64
2023/03/25 07:24:38;;;;;;;6.55;3.88;;;;;;;;;;4969013;28;20069;-65
2023/03/25 07:27:03;;;;;;;6.47;3.50;;;;;;;;;;4968279;28;20034;-65
2023/03/25 07:29:31;;;;;;;3.80;3.40;;;;;;;;;;4967550;28;20555;-65
2023/03/25 07:31:57;;;;;;;8.45;3.90;;;;;;;;;;4972026;28;20054;-65
2023/03/25 07:34:23;;;;;;;3.85;3.65;;;;;;;;;;4969512;28;20545;-65
2023/03/25 07:36:49;;;;;;;3.88;3.50;;;;;;;;;;4971375;28;20034;-65
2023/03/25 07:39:15;;;;;;;5.63;3.80;;;;;;;;;;4971036;28;20169;-65
2023/03/25 07:41:41;;;;;;;3.75;3.55;;;;;;;;;;4972808;28;20034;-65
2023/03/25 07:44:26;;;;;;;3.90;3.60;;;;;;;;;;4967240;28;20047;-65
2023/03/25 07:46:52;;;;;;;4.15;3.75;;;;;;;;;;4967511;28;20380;-64
2023/03/25 07:49:18;;;;;;;4.10;3.72;;;;;;;;;;4970958;28;20034;-65
2023/03/25 07:51:44;;;;;;;5.32;3.70;;;;;;;;;;4971279;28;20531;-65
2023/03/25 07:54:10;;;;;;;3.80;3.60;;;;;;;;;;4968123;28;20066;-65
2023/03/25 07:56:36;;;;;;;4.20;3.90;;;;;;;;;;4976672;28;20356;-66
2023/03/25 07:59:03;;;;;;;4.20;4.00;;;;;;;;;;4968871;28;20491;-65
2023/03/25 08:01:29;;;;;;;4.13;3.83;;;;;;;;;;4970439;28;20031;-66
2023/03/25 08:03:54;;;;;;;3.40;3.20;;;;;;;;;;4968551;28;20035;-65
2023/03/25 08:06:20;;;;;;;4.00;3.58;;;;;;;;;;4962674;28;20524;-65
2023/03/25 08:08:45;;;;;;;4.28;3.75;;;;;;;;;;4970360;28;20050;-65
2023/03/25 08:11:11;;;;;;;5.28;3.70;;;;;;;;;;4970611;28;20047;-65
2023/03/25 08:13:37;;;;;;;3.72;3.33;;;;;;;;;;4970558;28;20047;-65
2023/03/25 08:16:10;;;;;;;4.55;3.40;;;;;;;;;;4967283;28;20053;-64
2023/03/25 08:18:36;;;;;;;3.45;3.20;;;;;;;;;;4968797;28;20053;-65
2023/03/25 08:21:02;;;;;;;4.00;3.70;;;;;;;;;;4956938;28;20034;-66
2023/03/25 08:23:27;;;;;;;4.38;3.72;;;;;;;;;;4980275;28;20070;-65
2023/03/25 08:25:53;;;;;;;3.17;3.03;;;;;;;;;;4970496;28;20031;-65
2023/03/25 08:28:23;;;;;;;3.55;3.25;;;;;;;;;;4967644;28;20146;-65
2023/03/25 08:30:53;;;;;;;4.05;3.67;;;;;;;;;;4968234;28;20403;-65
2023/03/25 08:33:20;;;;;;;3.88;3.58;;;;;;;;;;4972194;28;20100;-65
2023/03/25 08:35:46;;;;;;;4.57;3.35;;;;;;;;;;4972201;28;20038;-65
2023/03/25 08:38:12;;;;;;;3.50;3.30;;;;;;;;;;4967963;28;20038;-65
2023/03/25 08:40:41;;;;;;;3.75;3.40;;;;;;;;;;4970040;28;20177;-65
2023/03/25 08:43:06;;;;;;;12.57;3.40;;;;;;;;;;4967299;28;20035;-65
2023/03/25 08:45:33;;;;;;;3.50;3.30;;;;;;;;;;4966432;28;20097;-65
2023/03/25 08:48:00;;;;;;;4.60;3.40;;;;;;;;;;4967839;28;20494;-65
2023/03/25 08:50:26;;;;;;;3.97;3.60;;;;;;;;;;4966565;28;20039;-65
2023/03/25 08:52:56;;;;;;;3.53;3.30;;;;;;;;;;4967414;28;20403;-65
2023/03/25 08:55:23;;;;;;;5.78;3.70;;;;;;;;;;4974531;28;20042;-65
2023/03/25 08:57:49;;;;;;;3.65;3.30;;;;;;;;;;4966238;28;20031;-64
2023/03/25 09:00:15;;;;;;;3.78;3.47;;;;;;;;;;4968101;28;20041;-65
2023/03/25 09:02:42;;;;;;;3.97;3.70;;;;;;;;;;4971642;28;20067;-65
2023/03/25 09:05:11;;;;;;;3.60;3.40;;;;;;;;;;4972903;28;20041;-65
2023/03/25 09:07:38;;;;;;;3.83;3.53;;;;;;;;;;4970997;28;20035;-65
2023/03/25 09:10:06;;;;;;;3.97;3.60;;;;;;;;;;4974924;28;20037;-65
2023/03/25 09:12:32;;;;;;;3.80;3.60;;;;;;;;;;4969003;28;20038;-65
2023/03/25 09:14:58;;;;;;;3.90;3.70;;;;;;;;;;4971973;28;20889;-64
2023/03/25 09:17:24;;;;;;;3.55;3.38;;;;;;;;;;4965110;28;20068;-65
2023/03/25 09:19:49;;;;;;;3.70;3.40;;;;;;;;;;4969535;28;20057;-64
2023/03/25 09:22:15;;;;;;;4.15;3.80;;;;;;;;;;4971325;28;20031;-65
2023/03/25 09:24:41;;;;;;;3.60;3.40;;;;;;;;;;4966859;28;20736;-65
2023/03/25 09:27:07;;;;;;;4.80;3.90;;;;;;;;;;4967844;28;20034;-65
2023/03/25 09:29:33;;;;;;;4.63;4.22;;;;;;;;;;4970078;28;20169;-65
2023/03/25 09:31:59;;;;;;;3.95;3.75;;;;;;;;;;4967574;28;20135;-65
2023/03/25 09:34:26;;;;;;;4.25;3.90;;;;;;;;;;4966234;28;20058;-66
2023/03/25 09:36:53;;;;;;;4.10;3.80;;;;;;;;;;4967530;28;20038;-66
2023/03/25 09:39:19;;;;;;;4.60;4.20;;;;;;;;;;4967396;28;20073;-66
2023/03/25 09:42:10;;;;;;;5.40;4.90;;;;;;;;;;4966303;28;20039;-66
2023/03/25 09:45:12;;;;;;;4.30;3.90;;;;;;;;;;4967263;28;20090;-66
2023/03/25 09:47:43;;;;;;;4.40;4.00;;;;;;;;;;4968163;28;20733;-66
2023/03/25 09:50:13;;;;;;;4.03;3.80;;;;;;;;;;4967408;28;20042;-65
2023/03/25 09:52:48;;;;;;;4.82;3.67;;;;;;;;;;4966062;28;20035;-65
2023/03/25 09:55:23;;;;;;;4.25;3.75;;;;;;;;;;4966093;28;20117;-66
2023/03/25 09:57:53;;;;;;;4.18;3.90;;;;;;;;;;4969372;28;20042;-66
2023/03/25 10:00:23;;;;;;;4.10;3.80;;;;;;;;;;4969690;28;20042;-65
2023/03/25 10:03:04;;;;;;;7.13;4.03;;;;;;;;;;4965945;28;20031;-66
2023/03/25 10:06:05;;;;;;;4.07;3.80;;;;;;;;;;4968517;28;20566;-66
2023/03/25 10:08:55;;;;;;;3.85;3.65;;;;;;;;;;4984292;28;20042;-66
2023/03/25 10:11:43;;;;;;;4.18;3.97;;;;;;;;;;4965972;28;20495;-66
2023/03/25 10:14:16;;;;;;;4.90;4.60;;;;;;;;;;4965624;28;20045;-66
2023/03/25 10:16:56;;;;;;;4.55;4.15;;;;;;;;;;4966961;28;20038;-66
2023/03/25 10:19:39;;;;;;;4.43;4.22;;;;;;;;;;4967117;28;20030;-66
2023/03/25 10:22:14;;;;;;;4.25;3.90;;;;;;;;;;4965839;28;20041;-66
2023/03/25 10:24:47;;;;;;;3.75;3.55;;;;;;;;;;4965706;28;20415;-66
2023/03/25 10:27:44;;;;;;;5.43;5.05;;;;;;;;;;4969269;28;20034;-65
2023/03/25 10:30:17;;;;;;;4.43;4.03;;;;;;;;;;4946899;28;20059;-66
2023/03/25 10:32:58;;;;;;;5.00;4.57;;;;;;;;;;4947799;28;20523;-65
2023/03/25 10:35:31;;;;;;;4.90;4.50;;;;;;;;;;4948110;28;20086;-66
2023/03/25 10:38:06;;;;;;;4.40;4.10;;;;;;;;;;4941975;29;20038;-66
2023/03/25 10:40:49;;;;;;;4.47;4.28;;;;;;;;;;4945566;28;20558;-66
2023/03/25 10:43:31;;;;;;;6.93;4.38;;;;;;;;;;4945888;29;20051;-66
2023/03/25 10:46:11;;;;;;;4.15;3.83;;;;;;;;;;4947750;29;20050;-66
2023/03/25 10:48:37;;;;;;;4.13;3.90;;;;;;;;;;4947254;29;20105;-66
2023/03/25 10:51:09;;;;;;;4.53;4.13;;;;;;;;;;4946798;28;20047;-66
2023/03/25 10:53:35;;;;;;;4.20;3.90;;;;;;;;;;4947195;29;20051;-66
2023/03/25 10:56:10;;;;;;;3.67;3.47;;;;;;;;;;4948105;29;20055;-66
2023/03/25 10:58:37;;;;;;;3.42;3.22;;;;;;;;;;4945595;28;20047;-66
2023/03/25 11:01:17;;;;;;;3.30;3.10;;;;;;;;;;4947760;29;20656;-66
2023/03/25 11:03:48;;;;;;;3.30;3.10;;;;;;;;;;4946495;28;20050;-66
2023/03/25 11:06:25;;;;;;;3.40;3.17;;;;;;;;;;4940844;28;20065;-66
2023/03/25 11:09:12;;;;;;;3.40;3.20;;;;;;;;;;4970845;28;20034;-66
2023/03/25 11:11:38;;;;;;;3.50;3.30;;;;;;;;;;4968850;28;20034;-66
2023/03/25 11:14:04;;;;;;;3.50;3.30;;;;;;;;;;4969840;28;20038;-66
2023/03/25 11:16:36;;;;;;;3.17;2.97;;;;;;;;;;4970171;28;20096;-66
2023/03/25 11:19:03;;;;;;;3.50;3.10;;;;;;;;;;4967245;28;20047;-66
2023/03/25 11:21:35;;;;;;;5.32;3.40;;;;;;;;;;4968531;28;20046;-66
2023/03/25 11:24:01;;;;;;;4.65;3.53;;;;;;;;;;4970542;28;20037;-66
2023/03/25 11:26:32;;;;;;;3.88;3.67;;;;;;;;;;4971588;28;20109;-66
2023/03/25 11:29:15;;;;;;;2.83;2.72;;;;;;;;;;4964379;28;20522;-66
2023/03/25 11:31:41;;;;;;;4.00;3.65;;;;;;;;;;4969768;28;20098;-66
2023/03/25 11:34:18;;;;;;;4.18;3.60;;;;;;;;;;4971500;28;20066;-66
2023/03/25 11:36:54;;;;;;;5.07;3.47;;;;;;;;;;4967014;28;20041;-66
2023/03/25 11:39:22;;;;;;;4.05;3.83;;;;;;;;;;4970471;28;20045;-66
2023/03/25 11:41:49;;;;;;;3.80;3.50;;;;;;;;;;4972280;28;20034;-66
2023/03/25 11:44:26;;;;;;;3.50;3.30;;;;;;;;;;4970803;28;20097;-66
2023/03/25 11:46:57;;;;;;;4.25;3.28;;;;;;;;;;4968731;28;20031;-66
2023/03/25 11:49:25;;;;;;;4.40;4.10;;;;;;;;;;4970431;28;20696;-66
2023/03/25 11:51:58;;;;;;;3.75;3.65;;;;;;;;;;4970249;28;20045;-65
2023/03/25 11:54:25;;;;;;;4.15;3.90;;;;;;;;;;4967937;28;20030;-65
2023/03/25 11:56:53;;;;;;;3.50;3.30;;;;;;;;;;4969658;28;20037;-66
2023/03/25 11:59:32;;;;;;;4.57;3.70;;;;;;;;;;4970448;28;20097;-66
2023/03/25 12:02:14;;;;;;;3.75;3.53;;;;;;;;;;4966272;28;20035;-66
2023/03/25 12:05:12;;;;;;;4.03;3.83;;;;;;;;;;4966969;28;20066;-66
2023/03/25 12:07:46;;;;;;;4.25;3.95;;;;;;;;;;4970379;28;20046;-66
2023/03/25 12:10:39;;;;;;;6.00;3.80;;;;;;;;;;4969155;28;20049;-66
2023/03/25 12:13:49;;;;;;;3.97;3.63;;;;;;;;;;4967542;28;20790;-65
2023/03/25 12:16:17;;;;;;;4.30;3.90;;;;;;;;;;4958831;28;20051;-66
2023/03/25 12:18:55;;;;;;;3.67;3.47;;;;;;;;;;4968794;28;20035;-66
2023/03/25 12:21:58;;;;;;;3.67;3.47;;;;;;;;;;4967462;28;20294;-66
2023/03/25 12:24:39;;;;;;;4.40;4.00;;;;;;;;;;4968271;28;20164;-66
2023/03/25 12:27:20;;;;;;;4.28;3.97;;;;;;;;;;4984455;28;20042;-65
2023/03/25 12:29:51;;;;;;;4.38;3.97;;;;;;;;;;4972012;28;20038;-66
2023/03/25 12:32:44;;;;;;;4.05;3.70;;;;;;;;;;4966739;28;20042;-66
2023/03/25 12:35:46;;;;;;;3.50;3.30;;;;;;;;;;4967884;28;20657;-66
2023/03/25 12:38:36;;;;;;;4.78;4.38;;;;;;;;;;4966665;28;20065;-66
2023/03/25 12:41:31;;;;;;;4.35;4.03;;;;;;;;;;4965506;28;20054;-66
2023/03/25 12:44:12;;;;;;;4.25;3.95;;;;;;;;;;4970669;28;20268;-66
2023/03/25 12:47:07;;;;;;;4.55;3.83;;;;;;;;;;4963369;28;20034;-66
2023/03/25 12:49:59;;;;;;;4.50;3.22;;;;;;;;;;4967264;28;20039;-66
2023/03/25 12:52:36;;;;;;;4.07;3.63;;;;;;;;;;4971911;28;20571;-66
2023/03/25 12:55:28;;;;;;;3.70;3.40;;;;;;;;;;4977155;28;20038;-66
2023/03/25 12:58:03;;;;;;;3.72;3.42;;;;;;;;;;4967405;28;20166;-66
2023/03/25 13:00:51;;;;;;;4.32;3.58;;;;;;;;;;4968558;28;20044;-65
2023/03/25 13:03:42;;;;;;;7.30;4.38;;;;;;;;;;4964279;28;20038;-66
2023/03/25 13:06:33;;;;;;;3.50;3.30;;;;;;;;;;4965627;28;20052;-66
2023/03/25 13:09:13;;;;;;;3.65;3.35;;;;;;;;;;4965962;28;20031;-67
2023/03/25 13:11:59;;;;;;;4.05;3.75;;;;;;;;;;4966885;28;20558;-66
2023/03/25 13:14:33;;;;;;;3.88;3.58;;;;;;;;;;4965709;28;20038;-65
2023/03/25 13:17:04;;;;;;;3.50;3.30;;;;;;;;;;4966104;28;20503;-65
2023/03/25 13:19:35;;;;;;;3.92;3.72;;;;;;;;;;4967240;28;20047;-65
2023/03/25 13:22:17;;;;;;;4.07;3.72;;;;;;;;;;4965095;28;20023;-65
2023/03/25 13:24:50;;;;;;;3.90;3.70;;;;;;;;;;4965723;28;20081;-65
2023/03/25 13:27:16;;;;;;;3.70;3.40;;;;;;;;;;4967306;28;20104;-65
2023/03/25 13:29:50;;;;;;;3.63;3.40;;;;;;;;;;4967158;28;20438;-65
2023/03/25 13:32:46;;;;;;;5.22;3.80;;;;;;;;;;4964926;28;20513;-65
2023/03/25 13:35:41;;;;;;;4.00;3.70;;;;;;;;;;4967535;28;20457;-67
2023/03/25 13:38:18;;;;;;;3.72;3.45;;;;;;;;;;4964250;28;20078;-66
2023/03/25 13:40:50;;;;;;;4.05;3.78;;;;;;;;;;4965356;28;20027;-65
2023/03/25 13:43:19;;;;;;;4.85;4.45;;;;;;;;;;4966632;28;20046;-65
2023/03/25 13:46:09;;;;;;;3.88;3.55;;;;;;;;;;4966747;28;20039;-65
2023/03/25 13:49:14;;;;;;;4.13;3.75;;;;;;;;;;4964725;28;20041;-65
2023/03/25 13:51:39;;;;;;;4.68;4.10;;;;;;;;;;4956373;28;20035;-65
2023/03/25 13:54:28;;;;;;;3.60;3.40;;;;;;;;;;4968927;28;20041;-66
2023/03/25 13:57:05;;;;;;;3.85;3.65;;;;;;;;;;4967031;28;20085;-65
2023/03/25 13:59:37;;;;;;;7.50;3.90;;;;;;;;;;4967178;28;20035;-65
2023/03/25 14:02:24;;;;;;;4.50;4.10;;;;;;;;;;4967994;28;20031;-65
2023/03/25 14:04:59;;;;;;;3.85;3.45;;;;;;;;;;4967912;28;20035;-67
2023/03/25 14:08:14;;;;;;;5.85;3.83;;;;;;;;;;4969446;28;20043;-67
2023/03/25 14:10:58;;;;;;;4.45;3.95;;;;;;;;;;4956832;28;20073;-66
2023/03/25 14:13:35;;;;;;;4.57;3.58;;;;;;;;;;4970812;28;20062;-66
2023/03/25 14:16:15;;;;;;;5.53;3.20;;;;;;;;;;4968318;28;20066;-66
2023/03/25 14:18:44;;;;;;;4.20;3.40;;;;;;;;;;4966627;28;20566;-66
2023/03/25 14:21:14;;;;;;;;;;;;;;;;;;4970793;28;20047;-66
2023/03/25 14:23:39;;;;;;;;;;;;;;;;;;4969104;28;19918;-66
2023/03/25 14:26:08;;;;;;;3.70;3.40;;;;;;;;;;4968967;28;19921;-66
2023/03/25 14:28:42;;;;;;;5.65;3.25;;;;;;;;;;4969929;28;20062;-66
2023/03/25 14:31:20;;;;;;;5.05;3.60;;;;;;;;;;4969894;28;20364;-66
2023/03/25 14:34:09;;;;;;;3.90;3.60;;;;;;;;;;4967433;28;20185;-66
2023/03/25 14:36:41;;;;;;;4.78;3.88;;;;;;;;;;4966489;28;20077;-66
2023/03/25 14:39:30;;;;;;;3.65;3.45;;;;;;;;;;4968809;28;20140;-66
2023/03/25 14:42:12;;;;;;;4.20;3.53;;;;;;;;;;4967808;28;20026;-66
2023/03/25 14:44:48;;;;;;;3.35;2.95;;;;;;;;;;4969300;28;20569;-66
2023/03/25 14:47:19;;;;;;;4.40;3.58;;;;;;;;;;4969904;28;20066;-66
2023/03/25 14:50:20;;;;;;;4.03;3.72;;;;;;;;;;4969511;28;20039;-66
2023/03/25 14:52:51;;;;;;;4.20;3.88;;;;;;;;;;4965120;28;20140;-66
2023/03/25 14:55:26;;;;;;;4.07;3.70;;;;;;;;;;4969871;28;20030;-66
2023/03/25 14:58:15;;;;;;;3.88;3.40;;;;;;;;;;4969359;28;20077;-66
2023/03/25 15:00:49;;;;;;;4.15;3.75;;;;;;;;;;4966629;28;20043;-66
2023/03/25 15:03:17;;;;;;;4.60;3.92;;;;;;;;;;4968652;28;20035;-67
2023/03/25 15:05:52;;;;;;;3.42;3.22;;;;;;;;;;4969337;28;20177;-66
2023/03/25 15:08:35;;;;;;;3.78;3.45;;;;;;;;;;4967421;28;20570;-66
2023/03/25 15:11:12;;;;;;;4.20;3.90;;;;;;;;;;4964219;28;20097;-66
2023/03/25 15:13:45;;;;;;;4.13;3.83;;;;;;;;;;4969114;28;20038;-66
2023/03/25 15:16:35;;;;;;;3.72;3.40;;;;;;;;;;4967470;28;20041;-66
2023/03/25 15:19:07;;;;;;;3.92;3.40;;;;;;;;;;4966921;28;20042;-66